Time;durP1;ratioP1;P1;durP2;ratioP2;P2;SDS_P1;SDS_P2;PMS_P1;PMS_P2;Temp;Humidity;BMP_temperature;BMP_pressure;BME280_temperature;BME280_humidity;BME280_pressure;Samples;Min_cycle;Max_cycle;Signal;HPM_P1;HPM_P2
2021/06/09 00:01:02;;;;;;;5.13;4.30;;;24.50;44.50;;;;;;6233167;27;82367;-63
2021/06/09 00:04:03;;;;;;;6.53;4.68;;;24.50;45.20;;;;;;6234789;27;80508;-63
2021/06/09 00:07:03;;;;;;;7.28;4.00;;;24.50;45.00;;;;;;6234942;27;80544;-62
2021/06/09 00:10:04;;;;;;;5.43;4.25;;;24.50;45.10;;;;;;6233637;27;81567;-62
2021/06/09 00:13:04;;;;;;;7.53;4.40;;;24.50;44.90;;;;;;6234359;27;81472;-62
2021/06/09 00:16:05;;;;;;;9.95;4.20;;;24.50;44.80;;;;;;6234792;27;81323;-62
2021/06/09 00:19:05;;;;;;;5.30;4.03;;;24.50;45.10;;;;;;6233608;27;82219;-62
2021/06/09 00:22:07;;;;;;;5.85;4.05;;;24.50;45.00;;;;;;6234400;27;80459;-62
2021/06/09 00:25:14;;;;;;;10.68;5.07;;;24.40;44.60;;;;;;6233699;27;83001;-63
2021/06/09 00:28:15;;;;;;;5.50;4.10;;;24.50;45.30;;;;;;6237904;27;81431;-62
2021/06/09 00:31:15;;;;;;;6.40;4.45;;;24.40;44.80;;;;;;6234182;27;81039;-62
2021/06/09 00:34:16;;;;;;;5.13;3.95;;;24.50;44.80;;;;;;6232934;27;81417;-62
2021/06/09 00:37:16;;;;;;;4.75;3.90;;;24.50;45.10;;;;;;6235030;27;81125;-62
2021/06/09 00:40:17;;;;;;;6.68;4.75;;;24.40;45.00;;;;;;6235084;27;80607;-63
2021/06/09 00:43:17;;;;;;;6.55;4.70;;;24.40;44.90;;;;;;6233118;27;80547;-63
2021/06/09 00:46:18;;;;;;;9.65;4.28;;;24.40;44.90;;;;;;6233963;27;81105;-63
2021/06/09 00:49:18;;;;;;;7.10;5.05;;;24.40;44.70;;;;;;6232891;27;83215;-63
2021/06/09 00:52:19;;;;;;;7.72;4.35;;;24.40;44.70;;;;;;6234703;27;80393;-62
2021/06/09 00:55:19;;;;;;;7.38;4.68;;;24.40;44.70;;;;;;6229346;27;80966;-63
2021/06/09 00:58:20;;;;;;;8.27;4.90;;;24.40;44.80;;;;;;6232562;27;83056;-62
2021/06/09 01:01:20;;;;;;;7.88;4.60;;;24.40;44.90;;;;;;6232292;27;80421;-63
2021/06/09 01:04:21;;;;;;;10.00;5.50;;;24.40;44.80;;;;;;6229609;27;80668;-63
2021/06/09 01:07:22;;;;;;;8.35;5.43;;;24.40;44.80;;;;;;6232406;27;82087;-63
2021/06/09 01:10:22;;;;;;;7.93;4.55;;;24.40;44.80;;;;;;6238264;27;80351;-63
2021/06/09 01:13:23;;;;;;;5.78;4.47;;;24.40;45.00;;;;;;6230824;27;80640;-63
2021/06/09 01:16:24;;;;;;;9.20;4.32;;;24.40;44.90;;;;;;6231261;27;80312;-63
2021/06/09 01:19:25;;;;;;;11.48;4.60;;;24.40;44.90;;;;;;6222885;27;82428;-63
2021/06/09 01:22:25;;;;;;;7.70;4.55;;;24.40;44.80;;;;;;6233570;27;82713;-63
2021/06/09 01:25:26;;;;;;;5.90;4.03;;;24.40;45.00;;;;;;6234223;27;81302;-63
2021/06/09 01:28:27;;;;;;;6.18;4.80;;;24.40;45.00;;;;;;6237699;27;81209;-63
2021/06/09 01:31:27;;;;;;;9.10;4.60;;;24.40;44.80;;;;;;6236649;27;80777;-63
2021/06/09 01:34:28;;;;;;;9.60;5.07;;;24.40;44.90;;;;;;6232525;27;83196;-63
2021/06/09 01:37:28;;;;;;;12.07;4.88;;;24.40;45.00;;;;;;6235557;27;80481;-63
2021/06/09 01:40:29;;;;;;;7.57;4.90;;;24.40;45.10;;;;;;6232007;27;80622;-63
2021/06/09 01:43:30;;;;;;;9.25;4.60;;;24.40;45.10;;;;;;6241191;27;80465;-62
2021/06/09 01:46:30;;;;;;;7.22;5.10;;;24.40;45.20;;;;;;6240413;27;81091;-62
2021/06/09 01:49:31;;;;;;;7.13;4.70;;;24.40;45.00;;;;;;6234759;27;81883;-62
2021/06/09 01:52:31;;;;;;;9.07;4.97;;;24.40;45.10;;;;;;6234129;27;80613;-61
2021/06/09 01:55:32;;;;;;;12.65;5.45;;;24.40;45.10;;;;;;6241443;27;80631;-62
2021/06/09 01:58:32;;;;;;;6.45;4.50;;;24.40;45.00;;;;;;6234779;27;81376;-61
2021/06/09 02:01:33;;;;;;;7.68;4.85;;;24.40;45.00;;;;;;6237111;27;81832;-61
2021/06/09 02:04:33;;;;;;;7.60;5.05;;;24.40;45.10;;;;;;6233709;27;80557;-62
2021/06/09 02:07:34;;;;;;;10.52;4.75;;;24.40;44.90;;;;;;6242217;27;80392;-62
2021/06/09 02:10:34;;;;;;;7.35;4.80;;;24.40;45.00;;;;;;6235787;27;80790;-62
2021/06/09 02:13:35;;;;;;;8.93;5.40;;;24.40;44.90;;;;;;6231371;27;80511;-63
2021/06/09 02:16:36;;;;;;;8.23;5.70;;;24.40;45.00;;;;;;6234899;27;80549;-62
2021/06/09 02:19:36;;;;;;;7.60;5.47;;;24.40;45.20;;;;;;6244559;27;80541;-62
2021/06/09 02:22:37;;;;;;;8.00;4.97;;;24.30;44.80;;;;;;6235267;27;80885;-61
2021/06/09 02:25:37;;;;;;;7.70;5.90;;;24.40;45.30;;;;;;6235317;27;80381;-61
2021/06/09 02:28:38;;;;;;;8.52;5.80;;;24.30;44.90;;;;;;6231978;27;80623;-61
2021/06/09 02:31:38;;;;;;;9.95;5.80;;;24.30;45.00;;;;;;6235363;27;80724;-61
2021/06/09 02:34:40;;;;;;;12.50;5.68;;;24.30;44.90;;;;;;6235318;27;81332;-61
2021/06/09 02:37:41;;;;;;;9.43;5.88;;;24.30;45.10;;;;;;6235622;27;80548;-60
2021/06/09 02:40:41;;;;;;;11.45;5.93;;;24.30;45.10;;;;;;6235570;27;80543;-61
2021/06/09 02:43:42;;;;;;;11.23;6.40;;;24.30;45.00;;;;;;6238393;27;80459;-61
2021/06/09 02:46:42;;;;;;;9.10;5.72;;;24.30;45.30;;;;;;6245940;27;80360;-61
2021/06/09 02:49:43;;;;;;;7.03;5.32;;;24.30;45.30;;;;;;6237554;27;80415;-61
2021/06/09 02:52:43;;;;;;;7.63;5.50;;;24.30;45.20;;;;;;6234679;27;80507;-61
2021/06/09 02:55:44;;;;;;;7.93;5.68;;;24.30;45.10;;;;;;6233680;27;80986;-61
2021/06/09 02:58:44;;;;;;;8.25;5.18;;;24.30;45.10;;;;;;6234044;27;80395;-61
2021/06/09 03:01:45;;;;;;;9.77;6.45;;;24.30;45.30;;;;;;6235381;27;81251;-61
2021/06/09 03:04:46;;;;;;;8.90;6.28;;;24.30;45.20;;;;;;6233280;27;81470;-60
2021/06/09 03:07:46;;;;;;;9.23;6.07;;;24.30;45.40;;;;;;6233925;27;80424;-62
2021/06/09 03:10:49;;;;;;;9.73;5.70;;;24.30;45.70;;;;;;6233019;27;80439;-63
2021/06/09 03:17:16;;;;;;;14.00;7.22;;;24.30;45.60;;;;;;6216436;27;86207;-61
2021/06/09 03:20:17;;;;;;;10.70;6.63;;;24.30;45.70;;;;;;6226976;27;80599;-61
2021/06/09 03:23:17;;;;;;;10.32;7.32;;;24.30;45.30;;;;;;6235610;27;80454;-61
2021/06/09 03:26:18;;;;;;;11.50;6.65;;;24.30;45.40;;;;;;6233697;27;80452;-61
2021/06/09 03:29:18;;;;;;;9.13;6.63;;;24.30;45.40;;;;;;6238477;27;80614;-61
2021/06/09 03:32:19;;;;;;;10.98;7.20;;;24.30;45.50;;;;;;6232863;27;81544;-62
2021/06/09 03:35:19;;;;;;;10.82;7.47;;;24.30;45.60;;;;;;6234829;27;80783;-61
2021/06/09 03:38:20;;;;;;;12.05;7.13;;;24.30;45.70;;;;;;6234255;27;80913;-61
2021/06/09 03:41:20;;;;;;;10.02;6.97;;;24.30;46.40;;;;;;6240794;27;81891;-61
2021/06/09 03:44:21;;;;;;;13.90;7.95;;;24.30;45.60;;;;;;6234489;27;82443;-61
2021/06/09 03:47:21;;;;;;;14.90;8.00;;;24.30;45.80;;;;;;6238346;27;80536;-62
2021/06/09 03:50:22;;;;;;;12.25;7.78;;;24.30;45.60;;;;;;6232472;27;80402;-61
2021/06/09 03:53:22;;;;;;;11.20;7.53;;;24.30;45.30;;;;;;6233685;27;80280;-62
2021/06/09 03:56:23;;;;;;;10.23;7.55;;;24.30;45.40;;;;;;6232289;27;81818;-62
2021/06/09 03:59:24;;;;;;;10.32;7.43;;;24.30;45.80;;;;;;6234481;27;81526;-62
2021/06/09 04:02:24;;;;;;;14.80;7.70;;;24.30;45.70;;;;;;6230654;27;80279;-62
2021/06/09 04:05:25;;;;;;;13.98;8.10;;;24.30;45.70;;;;;;6240769;27;81142;-61
2021/06/09 04:08:25;;;;;;;11.95;8.30;;;24.30;45.40;;;;;;6231880;27;81881;-61
2021/06/09 04:11:26;;;;;;;15.32;9.13;;;24.30;45.10;;;;;;6241176;27;80600;-61
2021/06/09 04:14:26;;;;;;;11.13;8.05;;;24.30;45.30;;;;;;6240275;27;80178;-61
2021/06/09 04:17:27;;;;;;;14.43;9.32;;;24.40;45.80;;;;;;6237531;27;80893;-61
2021/06/09 04:20:27;;;;;;;19.83;8.50;;;24.40;45.50;;;;;;6237641;27;81584;-60
2021/06/09 04:23:28;;;;;;;21.30;8.80;;;24.40;46.20;;;;;;6241541;27;80426;-61
2021/06/09 04:26:28;;;;;;;15.07;8.85;;;24.40;46.20;;;;;;6233200;27;80427;-61
2021/06/09 04:29:29;;;;;;;14.93;9.02;;;24.30;46.00;;;;;;6237194;27;80453;-62
2021/06/09 04:32:29;;;;;;;16.10;8.70;;;24.40;47.20;;;;;;6240351;27;80534;-61
2021/06/09 04:35:30;;;;;;;14.73;8.48;;;24.40;47.10;;;;;;6228715;27;82856;-62
2021/06/09 04:38:30;;;;;;;15.40;8.93;;;24.40;48.00;;;;;;6233190;27;81800;-61
2021/06/09 04:41:31;;;;;;;15.52;9.00;;;24.40;47.40;;;;;;6234849;27;80614;-61
2021/06/09 04:44:31;;;;;;;13.40;8.57;;;24.40;48.20;;;;;;6241591;27;83410;-63
2021/06/09 04:47:32;;;;;;;14.02;8.25;;;24.50;48.10;;;;;;6234678;27;80485;-63
2021/06/09 04:50:32;;;;;;;16.75;8.40;;;24.50;48.10;;;;;;6236666;27;80201;-63
2021/06/09 04:53:33;;;;;;;12.40;8.45;;;24.50;48.30;;;;;;6232738;27;81610;-62
2021/06/09 04:56:33;;;;;;;14.70;8.57;;;24.50;48.30;;;;;;6229356;27;80895;-62
2021/06/09 04:59:34;;;;;;;14.27;8.88;;;24.50;48.40;;;;;;6235347;27;80343;-63
2021/06/09 05:02:34;;;;;;;16.80;8.75;;;24.60;48.50;;;;;;6242880;27;81159;-61
2021/06/09 05:05:35;;;;;;;11.90;8.45;;;24.60;48.30;;;;;;6237308;27;80963;-61
2021/06/09 05:08:35;;;;;;;16.17;9.18;;;24.60;48.20;;;;;;6228780;27;81493;-61
2021/06/09 05:11:36;;;;;;;13.18;9.10;;;24.60;47.80;;;;;;6237874;27;80851;-61
2021/06/09 05:14:37;;;;;;;14.70;7.78;;;24.50;47.40;;;;;;6232182;27;81628;-62
2021/06/09 05:17:37;;;;;;;14.85;8.98;;;24.50;47.80;;;;;;6239842;27;80750;-61
2021/06/09 05:20:38;;;;;;;15.15;8.27;;;24.50;47.60;;;;;;6229606;27;80757;-60
2021/06/09 05:23:38;;;;;;;15.52;9.45;;;24.50;48.50;;;;;;6237470;27;81141;-61
2021/06/09 05:26:39;;;;;;;19.13;9.60;;;24.50;47.60;;;;;;6231461;27;80589;-60
2021/06/09 05:29:39;;;;;;;17.15;9.85;;;24.50;48.10;;;;;;6234498;27;80597;-61
2021/06/09 05:32:40;;;;;;;16.95;9.02;;;24.50;47.20;;;;;;6232045;27;80651;-61
2021/06/09 05:35:40;;;;;;;14.50;9.02;;;24.50;48.30;;;;;;6232858;27;80602;-61
2021/06/09 05:38:41;;;;;;;21.30;9.52;;;24.50;48.60;;;;;;6229914;27;80602;-61
2021/06/09 05:41:41;;;;;;;13.98;8.80;;;24.50;47.50;;;;;;6244468;27;80474;-65
2021/06/09 05:44:42;;;;;;;15.98;9.35;;;24.50;48.10;;;;;;6231543;27;81811;-62
2021/06/09 05:47:42;;;;;;;12.73;8.45;;;24.50;48.20;;;;;;6232216;27;80174;-62
2021/06/09 05:50:43;;;;;;;17.90;8.50;;;24.50;48.90;;;;;;6231349;27;81445;-62
2021/06/09 05:53:43;;;;;;;19.30;9.18;;;24.50;48.50;;;;;;6239710;27;81541;-62
2021/06/09 05:56:44;;;;;;;17.95;8.23;;;24.50;48.50;;;;;;6227461;27;81127;-61
2021/06/09 05:59:44;;;;;;;15.02;8.43;;;24.50;48.30;;;;;;6229828;27;81169;-62
2021/06/09 06:02:45;;;;;;;13.57;8.43;;;24.60;48.10;;;;;;6239536;27;80694;-62
2021/06/09 06:05:45;;;;;;;13.65;8.02;;;24.50;47.70;;;;;;6238612;27;80659;-62
2021/06/09 06:08:47;;;;;;;15.43;7.25;;;24.50;48.20;;;;;;6231026;27;83810;-62
2021/06/09 06:11:48;;;;;;;14.52;7.57;;;24.50;47.60;;;;;;6239898;27;81105;-62
2021/06/09 06:14:48;;;;;;;12.45;7.57;;;24.50;48.80;;;;;;6230888;27;80468;-62
2021/06/09 06:17:49;;;;;;;12.40;7.80;;;24.50;48.10;;;;;;6237414;27;80357;-62
2021/06/09 06:20:50;;;;;;;22.45;8.45;;;24.50;47.90;;;;;;6235042;27;80682;-61
2021/06/09 06:23:50;;;;;;;13.90;7.63;;;24.50;48.20;;;;;;6235396;27;80111;-62
2021/06/09 06:26:51;;;;;;;14.60;8.35;;;24.50;48.50;;;;;;6237135;27;82947;-62
2021/06/09 06:29:52;;;;;;;12.15;7.95;;;24.60;49.00;;;;;;6237632;27;81622;-62
2021/06/09 06:32:52;;;;;;;12.32;7.85;;;24.50;48.50;;;;;;6234483;27;80528;-62
2021/06/09 06:35:53;;;;;;;11.52;7.93;;;24.50;48.20;;;;;;6234968;27;80788;-62
2021/06/09 06:38:53;;;;;;;12.98;7.68;;;24.50;48.30;;;;;;6242230;27;80494;-62
2021/06/09 06:41:54;;;;;;;13.38;7.38;;;24.50;48.20;;;;;;6238881;27;81368;-62
2021/06/09 06:44:54;;;;;;;11.63;7.30;;;24.50;48.70;;;;;;6237559;27;80154;-62
2021/06/09 06:47:55;;;;;;;17.35;7.90;;;24.50;48.60;;;;;;6238536;27;81162;-62
2021/06/09 06:50:55;;;;;;;19.13;7.85;;;24.50;48.40;;;;;;6235510;27;82358;-62
2021/06/09 06:53:56;;;;;;;12.93;7.95;;;24.50;48.20;;;;;;6241673;27;80550;-62
2021/06/09 06:56:56;;;;;;;11.10;7.43;;;24.60;48.20;;;;;;6236251;27;80240;-62
2021/06/09 06:59:57;;;;;;;16.45;7.40;;;24.60;48.30;;;;;;6232852;27;80491;-62
2021/06/09 07:02:57;;;;;;;13.88;7.35;;;24.60;48.00;;;;;;6234721;27;80228;-62
2021/06/09 07:05:58;;;;;;;13.27;7.63;;;24.60;48.30;;;;;;6233350;27;80702;-62
2021/06/09 07:08:58;;;;;;;13.70;7.88;;;24.60;48.20;;;;;;6232164;27;80203;-62
2021/06/09 07:11:59;;;;;;;13.20;7.80;;;24.60;48.20;;;;;;6221527;27;80520;-62
2021/06/09 07:14:59;;;;;;;14.05;7.70;;;24.60;48.30;;;;;;6233999;27;80509;-62
2021/06/09 07:18:00;;;;;;;11.68;7.25;;;24.60;48.30;;;;;;6228234;28;91209;-62
2021/06/09 07:21:00;;;;;;;12.80;7.05;;;24.70;48.20;;;;;;6232698;27;80908;-62
2021/06/09 07:24:01;;;;;;;12.85;7.22;;;24.70;48.20;;;;;;6240572;27;80910;-62
2021/06/09 07:27:03;;;;;;;11.05;6.72;;;24.70;48.20;;;;;;6234008;27;81740;-61
2021/06/09 07:30:04;;;;;;;10.02;6.93;;;24.70;48.20;;;;;;6226330;27;83037;-62
2021/06/09 07:33:04;;;;;;;15.80;7.53;;;24.70;48.10;;;;;;6234847;27;80890;-61
2021/06/09 07:36:05;;;;;;;10.90;6.93;;;24.60;48.00;;;;;;6231283;27;80540;-61
2021/06/09 07:39:06;;;;;;;14.18;7.70;;;24.70;48.20;;;;;;6231401;27;80513;-61
2021/06/09 07:42:06;;;;;;;11.10;7.53;;;24.60;48.40;;;;;;6231782;27;81586;-62
2021/06/09 07:45:07;;;;;;;11.80;7.30;;;24.70;48.90;;;;;;6231943;27;82625;-61
2021/06/09 07:48:07;;;;;;;10.45;7.10;;;24.70;48.60;;;;;;6232073;27;81808;-63
2021/06/09 07:51:08;;;;;;;13.73;7.30;;;24.70;48.60;;;;;;6225871;27;81287;-63
2021/06/09 07:54:08;;;;;;;14.80;7.38;;;24.70;49.10;;;;;;6227107;27;80450;-62
2021/06/09 07:57:09;;;;;;;16.23;7.38;;;24.70;49.50;;;;;;6232245;27;80438;-62
2021/06/09 08:00:12;;;;;;;14.27;7.53;;;24.70;48.90;;;;;;6229148;27;81256;-62
2021/06/09 08:03:13;;;;;;;14.40;8.07;;;24.60;48.40;;;;;;6229286;27;81716;-63
2021/06/09 08:06:13;;;;;;;12.80;6.78;;;24.60;48.50;;;;;;6225419;27;80372;-63
2021/06/09 08:09:15;;;;;;;14.50;7.00;;;24.60;48.10;;;;;;6228139;27;81737;-63
2021/06/09 08:12:17;;;;;;;9.70;6.95;;;24.70;48.20;;;;;;6230124;27;81707;-63
2021/06/09 08:15:17;;;;;;;11.07;7.35;;;24.70;48.60;;;;;;6227039;27;82013;-63
2021/06/09 08:18:18;;;;;;;10.20;6.57;;;24.60;48.10;;;;;;6228309;27;81357;-62
2021/06/09 08:21:20;;;;;;;14.45;6.25;;;24.70;47.90;;;;;;6222618;27;80649;-63
2021/06/09 08:24:20;;;;;;;9.90;6.68;;;24.70;47.50;;;;;;6227051;27;81475;-64
2021/06/09 08:27:21;;;;;;;11.20;6.38;;;24.60;47.30;;;;;;6232239;27;81142;-62
2021/06/09 08:30:21;;;;;;;12.35;6.63;;;24.60;47.30;;;;;;6229412;27;80547;-62
2021/06/09 08:33:22;;;;;;;6.20;5.10;;;24.60;47.40;;;;;;6227229;27;81095;-62
2021/06/09 08:36:23;;;;;;;13.63;6.68;;;24.70;47.50;;;;;;6229998;27;81322;-62
2021/06/09 08:39:26;;;;;;;13.35;7.13;;;24.70;47.20;;;;;;6225395;27;83541;-62
2021/06/09 08:42:26;;;;;;;8.25;6.22;;;24.70;47.70;;;;;;6225098;27;81813;-62
2021/06/09 08:45:27;;;;;;;14.95;6.68;;;24.70;47.10;;;;;;6227475;27;81321;-62
2021/06/09 08:48:27;;;;;;;8.05;6.00;;;24.70;47.20;;;;;;6223192;27;80504;-62
2021/06/09 08:51:28;;;;;;;8.20;5.65;;;24.70;46.70;;;;;;6234673;27;80850;-62
2021/06/09 08:54:28;;;;;;;12.13;5.10;;;24.70;46.10;;;;;;6228735;27;82048;-62
2021/06/09 08:57:29;;;;;;;8.82;5.10;;;24.80;46.00;;;;;;6224603;27;82334;-62
2021/06/09 09:00:31;;;;;;;9.30;4.60;;;24.80;46.10;;;;;;6219238;27;80848;-62
2021/06/09 09:03:32;;;;;;;9.80;4.70;;;24.70;46.00;;;;;;6222325;27;80395;-62
2021/06/09 09:06:32;;;;;;;6.65;4.82;;;24.80;45.40;;;;;;6231958;27;81598;-63
2021/06/09 09:09:33;;;;;;;9.15;4.60;;;24.80;45.30;;;;;;6227879;27;80420;-62
2021/06/09 09:12:35;;;;;;;8.50;4.95;;;24.70;45.50;;;;;;6225263;27;81298;-62
2021/06/09 09:15:35;;;;;;;5.30;4.07;;;24.80;45.70;;;;;;6224001;27;80781;-63
2021/06/09 09:18:36;;;;;;;7.90;4.90;;;24.80;45.60;;;;;;6222693;28;83181;-62
2021/06/09 09:21:37;;;;;;;11.57;4.28;;;24.80;45.60;;;;;;6225316;27;80258;-61
2021/06/09 09:24:37;;;;;;;5.97;4.03;;;24.80;45.20;;;;;;6229318;27;80359;-62
2021/06/09 09:27:38;;;;;;;8.57;4.25;;;24.80;45.20;;;;;;6227774;27;80961;-63
2021/06/09 09:30:44;;;;;;;5.32;3.85;;;24.80;44.70;;;;;;6224681;27;81340;-62
2021/06/09 09:33:44;;;;;;;7.50;4.20;;;24.80;44.50;;;;;;6226069;28;80238;-62
2021/06/09 09:36:45;;;;;;;12.57;4.50;;;24.80;44.90;;;;;;6228361;27;83385;-62
2021/06/09 09:39:45;;;;;;;7.53;4.40;;;24.90;45.10;;;;;;6227079;27;81645;-62
2021/06/09 09:42:46;;;;;;;5.10;4.00;;;24.80;45.10;;;;;;6225944;27;80530;-63
2021/06/09 09:45:46;;;;;;;5.95;4.05;;;24.80;44.90;;;;;;6227812;27;80321;-62
2021/06/09 09:48:47;;;;;;;6.25;4.28;;;24.80;44.90;;;;;;6233137;27;80332;-63
2021/06/09 09:51:51;;;;;;;5.63;4.20;;;24.90;44.90;;;;;;6229615;27;81038;-62
2021/06/09 09:54:52;;;;;;;5.05;3.90;;;24.80;44.80;;;;;;6233016;27;83227;-62
2021/06/09 09:57:52;;;;;;;9.70;3.97;;;24.80;44.60;;;;;;6230924;27;81158;-63
2021/06/09 10:00:53;;;;;;;5.28;3.85;;;24.80;46.00;;;;;;6232008;27;81582;-63
2021/06/09 10:03:53;;;;;;;4.47;3.65;;;24.90;44.90;;;;;;6232466;27;80584;-64
2021/06/09 10:06:54;;;;;;;5.15;3.78;;;24.90;44.40;;;;;;6233651;27;80863;-62
2021/06/09 10:09:59;;;;;;;6.93;5.00;;;24.90;44.50;;;;;;6223636;27;80214;-62
2021/06/09 10:13:00;;;;;;;4.50;3.60;;;24.90;44.90;;;;;;6227584;27;80461;-62
2021/06/09 10:16:00;;;;;;;4.53;3.30;;;24.90;44.60;;;;;;6233041;27;82882;-62
2021/06/09 10:19:01;;;;;;;4.07;3.28;;;24.90;44.60;;;;;;6227502;27;80264;-62
2021/06/09 10:22:03;;;;;;;7.60;3.33;;;24.90;44.10;;;;;;6225819;27;81018;-62
2021/06/09 10:25:04;;;;;;;12.55;4.07;;;24.90;44.80;;;;;;6233359;27;81703;-62
2021/06/09 10:28:04;;;;;;;4.90;3.65;;;24.90;44.60;;;;;;6231657;27;81503;-62
2021/06/09 10:31:05;;;;;;;4.20;3.80;;;24.90;44.30;;;;;;6235912;27;81999;-62
2021/06/09 10:34:05;;;;;;;5.43;3.30;;;24.90;43.80;;;;;;6227223;27;81261;-63
2021/06/09 10:37:06;;;;;;;6.63;3.40;;;25.00;44.20;;;;;;6230822;27;80546;-62
2021/06/09 10:40:06;;;;;;;4.85;3.03;;;25.00;42.80;;;;;;6234652;27;81352;-62
2021/06/09 10:43:07;;;;;;;3.20;2.90;;;25.00;42.50;;;;;;6229642;27;80647;-61
2021/06/09 10:46:07;;;;;;;4.22;3.15;;;25.00;41.80;;;;;;6228232;27;82197;-62
2021/06/09 10:49:08;;;;;;;5.00;2.80;;;24.90;41.10;;;;;;6232816;27;81743;-62
2021/06/09 10:52:08;;;;;;;4.25;3.05;;;25.00;41.20;;;;;;6231756;27;81826;-62
2021/06/09 10:55:12;;;;;;;3.17;2.78;;;24.90;40.50;;;;;;6232782;27;81076;-62
2021/06/09 10:58:12;;;;;;;5.47;3.20;;;24.90;40.40;;;;;;6227859;27;81345;-63
2021/06/09 11:01:13;;;;;;;4.68;3.03;;;24.90;39.00;;;;;;6233804;27;80631;-62
2021/06/09 11:04:13;;;;;;;4.88;3.03;;;24.90;40.20;;;;;;6225362;27;82522;-63
2021/06/09 11:07:14;;;;;;;5.03;3.28;;;25.00;39.60;;;;;;6229623;27;81621;-62
2021/06/09 11:10:14;;;;;;;12.38;3.50;;;25.00;39.20;;;;;;6231629;27;81087;-62
2021/06/09 11:13:15;;;;;;;7.20;3.60;;;24.90;39.40;;;;;;6229763;27;81496;-62
2021/06/09 11:16:16;;;;;;;6.38;3.65;;;24.90;39.70;;;;;;6230691;27;80794;-63
2021/06/09 11:19:16;;;;;;;8.32;3.63;;;24.90;40.50;;;;;;6229245;27;80456;-63
2021/06/09 11:22:17;;;;;;;6.47;3.17;;;24.90;40.60;;;;;;6229967;27;81383;-63
2021/06/09 11:25:17;;;;;;;4.70;3.25;;;24.90;40.80;;;;;;6229170;27;80694;-63
2021/06/09 11:28:18;;;;;;;4.70;3.17;;;24.90;41.00;;;;;;6223519;27;81376;-62
2021/06/09 11:31:18;;;;;;;7.43;4.05;;;25.00;40.60;;;;;;6229094;28;83549;-63
2021/06/09 11:34:19;;;;;;;5.68;3.42;;;25.00;40.90;;;;;;6227827;27;80777;-63
2021/06/09 11:37:19;;;;;;;5.75;3.22;;;25.00;40.00;;;;;;6230226;27;81524;-63
2021/06/09 11:40:20;;;;;;;5.07;3.20;;;25.00;39.90;;;;;;6228312;27;81395;-63
2021/06/09 11:43:20;;;;;;;3.55;3.25;;;25.00;39.80;;;;;;6231807;27;80451;-63
2021/06/09 11:46:21;;;;;;;5.03;3.25;;;25.00;40.20;;;;;;6230177;27;80733;-63
2021/06/09 11:49:21;;;;;;;4.15;3.35;;;25.00;38.50;;;;;;6230972;27;81560;-63
2021/06/09 11:52:22;;;;;;;3.63;3.25;;;25.00;38.70;;;;;;6230203;28;80406;-62
2021/06/09 11:55:25;;;;;;;4.93;3.08;;;25.10;38.20;;;;;;6231816;27;80097;-63
2021/06/09 11:58:25;;;;;;;3.70;2.85;;;25.10;37.80;;;;;;6225465;27;82195;-63
2021/06/09 12:01:26;;;;;;;4.95;2.95;;;25.00;38.40;;;;;;6230996;27;81543;-63
2021/06/09 12:04:26;;;;;;;4.03;3.03;;;25.00;37.60;;;;;;6231546;27;80140;-63
2021/06/09 12:07:27;;;;;;;7.22;2.88;;;25.00;37.50;;;;;;6229435;28;81877;-63
2021/06/09 12:10:27;;;;;;;4.90;3.20;;;25.00;37.90;;;;;;6229442;27;80287;-63
2021/06/09 12:13:28;;;;;;;5.90;3.25;;;25.10;37.40;;;;;;6229476;27;81842;-63
2021/06/09 12:16:28;;;;;;;2.95;2.65;;;25.00;37.10;;;;;;6229743;27;80504;-63
2021/06/09 12:19:29;;;;;;;4.18;3.33;;;25.10;37.50;;;;;;6232034;27;81728;-62
2021/06/09 12:22:30;;;;;;;5.85;3.13;;;25.10;38.00;;;;;;6239578;27;80815;-63
2021/06/09 12:25:31;;;;;;;4.45;3.30;;;25.10;37.40;;;;;;6242795;27;80484;-63
2021/06/09 12:28:32;;;;;;;3.35;3.05;;;25.10;37.20;;;;;;6230216;27;80949;-63
2021/06/09 12:31:32;;;;;;;6.45;3.10;;;25.10;37.30;;;;;;6238585;27;80285;-63
2021/06/09 12:34:33;;;;;;;9.02;3.13;;;25.10;37.60;;;;;;6237894;27;81024;-63
2021/06/09 12:37:33;;;;;;;5.72;3.00;;;25.10;38.00;;;;;;6238745;27;81605;-63
2021/06/09 12:40:34;;;;;;;4.82;3.13;;;25.10;38.30;;;;;;6237029;27;83616;-64
2021/06/09 12:43:34;;;;;;;6.63;3.55;;;25.10;38.40;;;;;;6229102;27;80894;-64
2021/06/09 12:46:35;;;;;;;3.20;2.70;;;25.10;38.60;;;;;;6238132;27;81207;-64
2021/06/09 12:49:35;;;;;;;3.13;2.80;;;25.00;39.20;;;;;;6237042;27;81138;-63
2021/06/09 12:52:36;;;;;;;3.17;2.88;;;25.10;39.20;;;;;;6232935;27;81597;-63
2021/06/09 12:55:36;;;;;;;3.05;2.67;;;25.20;39.90;;;;;;6232522;27;81655;-63
2021/06/09 12:58:37;;;;;;;4.80;3.40;;;25.20;39.40;;;;;;6239481;27;81262;-65
2021/06/09 13:01:37;;;;;;;3.92;3.17;;;25.20;39.80;;;;;;6231368;27;80457;-63
2021/06/09 13:04:39;;;;;;;6.38;3.50;;;25.10;39.30;;;;;;6229127;27;86605;-64
2021/06/09 13:07:41;;;;;;;5.75;3.60;;;25.10;40.00;;;;;;6223852;27;82638;-65
2021/06/09 13:10:41;;;;;;;7.90;3.30;;;25.10;40.90;;;;;;6226157;27;81702;-64
2021/06/09 13:13:42;;;;;;;4.95;2.97;;;25.10;40.80;;;;;;6227566;27;80614;-64
2021/06/09 13:16:43;;;;;;;6.70;3.40;;;25.20;41.20;;;;;;6228026;27;80494;-65
2021/06/09 13:19:43;;;;;;;4.40;3.00;;;25.20;41.40;;;;;;6227075;27;80582;-65
2021/06/09 13:22:44;;;;;;;3.67;3.35;;;25.20;41.90;;;;;;6230387;27;80776;-66
2021/06/09 13:25:44;;;;;;;3.83;3.20;;;25.20;41.60;;;;;;6227821;27;80626;-64
2021/06/09 13:28:45;;;;;;;6.10;3.05;;;25.20;41.80;;;;;;6227316;27;87458;-64
2021/06/09 13:31:45;;;;;;;3.08;2.78;;;25.20;41.90;;;;;;6228403;27;80239;-64
2021/06/09 13:34:46;;;;;;;8.77;3.47;;;25.20;41.90;;;;;;6230229;27;82042;-63
2021/06/09 13:37:47;;;;;;;4.72;3.45;;;25.20;42.00;;;;;;6226291;27;80560;-65
2021/06/09 13:40:47;;;;;;;4.75;2.92;;;25.20;42.00;;;;;;6228190;27;81640;-64
2021/06/09 13:43:48;;;;;;;3.80;3.08;;;25.20;42.20;;;;;;6218429;27;82448;-64
2021/06/09 13:46:48;;;;;;;4.75;3.55;;;25.10;42.10;;;;;;6229713;27;81566;-64
2021/06/09 13:49:49;;;;;;;5.55;3.17;;;25.20;42.20;;;;;;6228726;27;81126;-64
2021/06/09 13:52:49;;;;;;;6.40;3.88;;;25.20;42.20;;;;;;6228015;27;80835;-64
2021/06/09 13:55:50;;;;;;;3.58;3.00;;;25.20;42.30;;;;;;6228478;27;85003;-65
2021/06/09 13:58:51;;;;;;;8.45;3.83;;;25.20;42.40;;;;;;6226252;27;83960;-66
2021/06/09 14:01:52;;;;;;;3.65;3.20;;;25.20;42.40;;;;;;6229287;27;80327;-65
2021/06/09 14:04:52;;;;;;;3.97;3.40;;;25.20;42.40;;;;;;6230357;27;80460;-65
2021/06/09 14:07:57;;;;;;;6.70;2.88;;;25.20;42.70;;;;;;6226260;27;81809;-65
2021/06/09 14:10:57;;;;;;;4.90;3.13;;;25.30;43.10;;;;;;6228336;27;82094;-63
2021/06/09 14:13:58;;;;;;;6.22;4.10;;;25.30;42.60;;;;;;6238125;27;81220;-62
2021/06/09 14:16:59;;;;;;;6.20;3.40;;;25.30;43.00;;;;;;6229795;27;80340;-65
2021/06/09 14:20:04;;;;;;;7.40;3.67;;;25.30;42.80;;;;;;6231816;27;80289;-65
2021/06/09 14:23:05;;;;;;;4.95;3.60;;;25.30;43.00;;;;;;6231162;27;80282;-62
2021/06/09 14:26:05;;;;;;;4.22;3.42;;;25.30;42.90;;;;;;6213136;27;84499;-63
2021/06/09 14:29:06;;;;;;;5.25;4.13;;;25.30;43.30;;;;;;6230527;27;81412;-63
2021/06/09 14:32:06;;;;;;;7.18;3.65;;;25.20;43.50;;;;;;6234124;27;81725;-64
2021/06/09 14:35:10;;;;;;;10.57;4.10;;;25.20;43.80;;;;;;6236626;27;80650;-64
2021/06/09 14:38:11;;;;;;;8.68;3.97;;;25.20;44.10;;;;;;6217397;27;80771;-64
2021/06/09 14:41:11;;;;;;;6.38;4.35;;;25.20;44.10;;;;;;6230566;27;80545;-64
2021/06/09 14:44:19;;;;;;;9.63;4.45;;;25.20;44.20;;;;;;6240071;27;80637;-64
2021/06/09 14:50:38;;;;;;;9.57;4.43;;;25.20;44.70;;;;;;6236152;27;80368;-63
2021/06/09 14:53:39;;;;;;;11.98;4.45;;;25.20;44.40;;;;;;6233493;27;80786;-64
2021/06/09 14:56:40;;;;;;;8.65;4.50;;;25.20;44.80;;;;;;6234789;27;80538;-64
2021/06/09 14:59:40;;;;;;;9.73;4.32;;;25.20;45.00;;;;;;6235525;27;80816;-64
2021/06/09 15:02:43;;;;;;;9.90;4.80;;;25.20;45.70;;;;;;6236355;27;80632;-64
2021/06/09 15:05:44;;;;;;;6.03;4.82;;;25.20;45.80;;;;;;6236117;27;80716;-64
2021/06/09 15:08:44;;;;;;;8.88;4.63;;;25.20;45.90;;;;;;6234692;27;80498;-64
2021/06/09 15:11:46;;;;;;;7.13;4.78;;;25.20;46.00;;;;;;6234030;27;81587;-64
2021/06/09 15:14:47;;;;;;;8.43;4.68;;;25.20;45.60;;;;;;6234118;27;80209;-64
2021/06/09 15:17:48;;;;;;;5.28;4.32;;;25.20;45.60;;;;;;6240938;27;80533;-63
2021/06/09 15:20:48;;;;;;;7.55;4.68;;;25.20;45.60;;;;;;6231994;27;81106;-63
2021/06/09 15:23:49;;;;;;;7.85;4.43;;;25.20;45.50;;;;;;6233711;27;82066;-64
2021/06/09 15:26:49;;;;;;;12.65;4.68;;;25.20;46.10;;;;;;6240271;27;81416;-63
2021/06/09 15:29:50;;;;;;;10.85;4.82;;;25.20;45.60;;;;;;6225999;27;84466;-63
2021/06/09 15:32:50;;;;;;;7.90;4.15;;;25.20;45.60;;;;;;6236813;27;80877;-64
2021/06/09 15:35:51;;;;;;;13.05;4.20;;;25.20;45.80;;;;;;6232238;27;81449;-64
2021/06/09 15:38:52;;;;;;;6.00;3.97;;;25.10;45.90;;;;;;6237356;27;81573;-64
2021/06/09 15:41:52;;;;;;;9.57;3.97;;;25.10;46.90;;;;;;6223480;27;81261;-63